Detalii statie AGROSAMI SACALAZ [00001988]

Toti senzorii

Date Temperatura solului [C]Precipitatii [mm]Voltaj baterie [mV]Leaf Wetness [Min]HC Air temperature [C]HC Relative humidity [%]Punctul de roua [C]
medieminmaxsumaultimatimpmedieminmaxmediemediemin
2019-08-15 19:00:00 0 7206 23.04 21.74 24.34 0 0 0
2019-08-15 20:00:00 0 7050 20.04 19.12 21.39 0 0 0
2019-08-15 21:00:00 0 7030 18.61 18.41 18.97 0 0 0
2019-08-15 22:00:00 0 7000 17.83 17.3 18.49 0 0 0
2019-08-15 23:00:00 0 7020 15.34 14.08 17.13 0 0 0
2019-08-16 00:00:00 0 7000 13.46 12.72 14.4 0 0 0
2019-08-16 01:00:00 0 6992 13.98 13.31 14.22 0 0 0
2019-08-16 02:00:00 0 6972 12.97 12.48 13.89 0 0 0
2019-08-16 03:00:00 0 6972 12.59 12.33 12.88 0 0 0
2019-08-16 04:00:00 0 6972 12.76 12.34 13.1 0 0 0
2019-08-16 05:00:00 0 6952 12.26 11.37 12.73 0 0 0
2019-08-16 06:00:00 0 6942 11.85 11.18 12.42 0 0 0
2019-08-16 07:00:00 0 6982 12.75 12.38 13.92 0 0 0
2019-08-16 08:00:00 0 7098 15.51 14.63 16.77 0 0 0
2019-08-16 09:00:00 0 7186 21.21 17.15 24.31 0 0 0
2019-08-16 10:00:00 0 7314 24.62 21.85 27.67 4.36 0
2019-08-16 11:00:00 0 7324 25.8 24.87 27.19 0 0 0
2019-08-16 12:00:00 0 7324 26.62 25.18 28.32 0 0 0
2019-08-16 13:00:00 0 7324 28.41 26.43 31.15 1.74 0
2019-08-16 14:00:00 0 7304 28.83 25.66 32.04 0 0 0
2019-08-16 15:00:00 0 7314 30.17 26.64 33.73 0 0 0
2019-08-16 16:00:00 0 7332 26.95 26.04 28.88 0.62 0
2019-08-16 17:00:00 0 7236 26.49 25.49 27.54 0 0 0
2019-08-16 18:00:00 0 7314 25.92 25.33 27.37 0 0 0
2019-08-16 19:00:00 0 7118 23.66 22.56 25.42 0 0 0
2019-08-16 20:00:00 0 7020 21.86 20.94 22.45 2.14 -1.3 0
2019-08-16 21:00:00 0 6992 19.9 19.42 20.7 0 0 0
2019-08-16 22:00:00 0 6992 18.92 18.55 19.3 0 0 0
2019-08-16 23:00:00 0 6992 17.89 17.44 18.3 1.95 0
2019-08-17 00:00:00 0 6942 16.58 16.11 17 0.11 0
2019-08-17 01:00:00 0 6952 15.79 14.69 16.38 0 0 0
2019-08-17 02:00:00 0 6952 15.51 14.63 16.13 0 0 0
2019-08-17 03:00:00 0 6932 15.7 14.78 16.13 0 0 0
2019-08-17 04:00:00 0 6932 14.04 13.57 14.7 0 0 0
2019-08-17 05:00:00 0 6932 13.82 13.51 14.04 0 0 0
2019-08-17 06:00:00 0 6942 14.22 13.67 14.78 0 0 0
2019-08-17 07:00:00 0 6962 14.35 14.11 14.51 0 0 0
2019-08-17 08:00:00 0 7080 15.6 14.69 16.48 0 0 0
2019-08-17 09:00:00 0 7196 19.82 16.66 22.5 0 0 0
2019-08-17 10:00:00 0 7324 24.67 22.35 27.08 0 0 0
2019-08-17 11:00:00 0 7324 25.94 25.15 26.65 0 0 0
2019-08-17 12:00:00 0 7314 25.9 24.25 27.29 0 0 0
2019-08-17 13:00:00 0 7274 29.25 26.61 30.74 0.01 0 0
2019-08-17 14:00:00 0 7314 30.42 26.11 32.18 0 0 0
2019-08-17 15:00:00 0 7314 30.41 28.98 32.25 1.26 -1.5 0
2019-08-17 16:00:00 0 7324 30.31 27.66 32.8 0 0 0
2019-08-17 17:00:00 0 7324 29.16 27.74 30.4 0 0 0
2019-08-17 18:00:00 0 7304 28.64 27.48 29.48 0 0 0